Airfield :
LOGIN :

Register | Disclaimer

   EN    FR    IT 

 










Legend :    VFR   Marginal VFR   IFR   Intensive IFR   Very Intensive IFR
Visi :
Ceiling :
>= 8 km
>= 3000ft
5 to 8 km
1000 to 3000 ft
1500m to 5 km
500 to 1000 ft
800 to 1500m
200 to 500 ft
< 800m
< 200 ft
Symbols :   Thunderstorms  Fog  Heavy snow  Heavy precipitations  Wind > 20 kt
SIGMETs :     Misc.  Thunderstorms  Icing  Turbulence  Mountain Waves  Volcanic Ashes







- Airport Elevation : 610 ft
- IATA code : VXO


ESMX - Växjö Kronoberg

CURRENT METAR :
  • 260950Z 23010KT 7000 -RA FEW009 BKN039 10/10 Q1001

EXPIRED METARs :
  • 260920Z 26010G23KT 220V310 7000 -RA SCT007 BKN011 10/10 Q1001
  • 260850Z 23010KT 200V260 6000 -RA SCT002 BKN007 09/09 Q1001
  • 260820Z 22010KT 200V260 6000 -RA BKN006 10/10 Q1001
  • 260750Z 24010KT 210V270 8000 -RA FEW006 BKN012 09/09 Q1001
  • 260720Z 23011KT 9999 -RA FEW005 BKN009 09/09 Q1002

TAF TAF ESMX
Valid from the 26 at 09:00 until the 26 at 18:00 UTC


260830Z 2609/2618 26015KT 9999 -RA BKN015
PROB40 2609/2612 4000RA BKN008
No reported NOTAMs for that airfield.



MET'MAP, your aeronautical weather chart ! - Copyright ORBIFLY December 2007 - Disclaimer

ORBIFLY MET'MAP TEAM :

Programming & Development : Alexandra Zaïnal
Concept & Development : Baudouin d'Aumeries
Co-Development & Prog : Marc-Olivier Méhu
Technical & hardware support : Manuel Goepfert

Contact : metmap@orbifly.com




SOURCES & CREDITS :

   NOAA